メインページ
METAR-TAF:

METAR-TAF

空港 :

札幌飛行場

札幌, 日本

緯度: 43-07N, 経度: 141-23E, 海抜: 8m

現時点の気象観測

当レポートは41分前の09:04(UTC)に作成
南/南東の風 22kt、最大32ktの突風を伴う
気温 9°C
湿度 87%
気圧 1013 hPa
視程10km以上
高度1000ftの雲はほとんどない
高度2000ftの千切れ雲あり
高度15000ftの千切れ雲あり
弱いにわか雨

METAR: RJCO 240904Z 15022G32KT 9999 -SHRA FEW010 BKN020 BKN150 09/07 Q1013 RMK 1ST010 5CU020 7AC150 A2992

時間: 18:45 (09:45 UTC)


TAF: 見つかりません

4,000以上の空港の気象観測と天気予報(METAR報とTAF報)

利用可能な観測所は地図上に黄色い丸と赤い丸で示す。

丸の上にカーソルを重ねると観測所名を参照できる。

次にクリックすると気象観測と天気予報を参照できる。

マップの切り替え:黒色「×」印の緑ボタンをクリックして拡大、「-」印の緑ボタンをクリックして縮小、緑色の三角印をクリックして隣りの地図に切り替え


METAR-TAF: